Time;durP1;ratioP1;P1;durP2;ratioP2;P2;SDS_P1;SDS_P2;PMS_P1;PMS_P2;Temp;Humidity;BMP_temperature;BMP_pressure;BME280_temperature;BME280_humidity;BME280_pressure;Samples;Min_cycle;Max_cycle;Signal;HPM_P1;HPM_P2
2023/10/09 00:02:24;;;;;;;0.00;0.00;;;17.30;99.90;;;;;;5032771;28;20496;-74
2023/10/09 00:04:51;;;;;;;0.00;0.00;;;17.10;99.90;;;;;;5032931;28;20501;-75
2023/10/09 00:07:17;;;;;;;0.00;0.00;;;17.30;99.90;;;;;;5032742;28;20024;-75
2023/10/09 00:09:46;;;;;;;2.28;0.65;;;17.30;99.90;;;;;;5033046;28;20029;-74
2023/10/09 00:12:22;;;;;;;0.00;0.00;;;17.20;99.90;;;;;;5031645;28;20095;-75
2023/10/09 00:14:50;;;;;;;0.00;0.00;;;17.30;99.90;;;;;;5032508;28;20038;-74
2023/10/09 00:17:17;;;;;;;0.17;0.17;;;17.50;99.90;;;;;;5032645;28;20018;-75
2023/10/09 00:19:47;;;;;;;0.35;0.35;;;17.50;99.90;;;;;;5032953;28;20500;-75
2023/10/09 00:22:26;;;;;;;0.00;0.00;;;17.40;99.90;;;;;;5032844;28;20503;-75
2023/10/09 00:25:10;;;;;;;0.30;0.30;;;17.30;99.90;;;;;;5032832;28;20124;-74
2023/10/09 00:27:45;;;;;;;0.00;0.00;;;17.20;99.90;;;;;;5032451;28;20034;-75
2023/10/09 00:30:21;;;;;;;0.10;0.10;;;17.10;99.90;;;;;;5032761;28;20438;-75
2023/10/09 00:33:03;;;;;;;0.00;0.00;;;17.10;99.90;;;;;;5015387;28;20482;-75
2023/10/09 00:43:35;;;;;;;2.30;1.77;;;17.10;99.90;;;;;;5036374;28;20021;-74
2023/10/09 00:46:03;;;;;;;0.00;0.00;;;16.80;99.90;;;;;;5035434;28;20025;-73
2023/10/09 00:48:31;;;;;;;0.45;0.45;;;16.90;99.90;;;;;;5035055;28;20021;-73
2023/10/09 00:51:00;;;;;;;0.63;0.63;;;17.00;99.90;;;;;;5035100;28;20123;-75
2023/10/09 00:53:30;;;;;;;0.00;0.00;;;16.90;99.90;;;;;;5018204;28;20056;-74
2023/10/09 00:56:05;;;;;;;1.42;0.93;;;17.00;99.90;;;;;;5016345;28;20379;-74
2023/10/09 00:58:35;;;;;;;1.48;1.38;;;17.00;99.90;;;;;;5016188;28;20025;-74
2023/10/09 01:01:04;;;;;;;2.22;1.58;;;17.10;99.90;;;;;;5016450;28;20037;-73
2023/10/09 01:03:33;;;;;;;0.00;0.00;;;17.10;99.90;;;;;;5016522;28;20029;-74
2023/10/09 01:06:28;;;;;;;0.00;0.00;;;17.30;99.90;;;;;;5016330;28;20049;-74
2023/10/09 01:09:06;;;;;;;1.25;1.17;;;17.30;99.90;;;;;;5015833;28;20069;-73
2023/10/09 01:11:32;;;;;;;1.63;1.05;;;17.40;99.90;;;;;;5002778;28;20038;-76
2023/10/09 01:14:11;;;;;;;0.57;0.57;;;17.60;99.90;;;;;;5016218;28;20036;-77
2023/10/09 01:16:42;;;;;;;0.10;0.10;;;17.70;99.90;;;;;;5016229;28;20038;-76
2023/10/09 01:19:23;;;;;;;0.60;0.55;;;17.60;99.90;;;;;;5016194;28;20629;-77
2023/10/09 01:21:51;;;;;;;0.10;0.10;;;17.30;99.90;;;;;;4999021;28;20027;-77
2023/10/09 01:24:19;;;;;;;0.28;0.28;;;17.40;99.90;;;;;;5024579;28;20026;-76
2023/10/09 01:26:46;;;;;;;3.85;2.17;;;17.40;99.90;;;;;;5030903;28;20026;-77
2023/10/09 01:29:20;;;;;;;0.03;0.03;;;17.10;99.90;;;;;;5014708;28;20381;-77
2023/10/09 01:32:03;;;;;;;1.52;0.80;;;17.10;99.90;;;;;;5030993;28;20128;-77
2023/10/09 01:37:06;;;;;;;0.00;0.00;;;17.10;99.90;;;;;;5015745;28;20026;-77
2023/10/09 01:39:39;;;;;;;0.00;0.00;;;17.20;99.90;;;;;;5015948;28;20026;-77
2023/10/09 01:42:06;;;;;;;0.25;0.25;;;17.60;99.90;;;;;;5030450;28;20026;-76
2023/10/09 01:44:35;;;;;;;0.90;0.63;;;17.20;99.90;;;;;;5015741;28;20475;-76
2023/10/09 01:47:07;;;;;;;0.10;0.10;;;17.10;99.90;;;;;;5015537;28;20026;-77
2023/10/09 01:49:37;;;;;;;;;;;17.10;99.90;;;;;;5013734;28;20030;-77
2023/10/09 01:52:09;;;;;;;0.25;0.25;;;17.50;99.90;;;;;;5014169;28;19949;-76
2023/10/09 01:54:40;;;;;;;2.30;1.55;;;17.60;99.90;;;;;;5015264;28;20084;-73
2023/10/09 01:57:15;;;;;;;0.10;0.10;;;17.50;99.90;;;;;;5014245;28;20033;-74
2023/10/09 02:00:02;;;;;;;0.45;0.38;;;17.00;99.90;;;;;;5014176;28;20064;-74
2023/10/09 02:02:38;;;;;;;2.72;2.05;;;17.00;99.90;;;;;;5015174;28;20040;-74
2023/10/09 02:07:40;;;;;;;1.65;1.05;;;17.30;99.90;;;;;;5030354;28;20037;-76
2023/10/09 02:10:25;;;;;;;1.10;0.73;;;17.70;99.90;;;;;;5013643;28;20482;-74
2023/10/09 02:12:59;;;;;;;0.68;0.65;;;17.70;99.90;;;;;;5030160;28;20057;-73
2023/10/09 02:19:29;;;;;;;3.83;2.15;;;17.70;99.90;;;;;;5030314;28;20099;-73
2023/10/09 02:21:15;;;;;;;6.72;1.55;;;17.10;99.90;;;;;;4998978;28;20130;-74
2023/10/09 02:26:25;;;;;;;0.55;0.55;;;16.70;99.90;;;;;;5013312;28;20020;-74
2023/10/09 02:29:04;;;;;;;0.30;0.30;;;16.90;99.90;;;;;;5014929;28;20395;-73
2023/10/09 02:31:40;;;;;;;0.45;0.45;;;17.10;99.90;;;;;;5028980;28;20549;-73
2023/10/09 02:34:08;;;;;;;3.15;1.75;;;17.00;99.90;;;;;;5014715;28;20076;-73
2023/10/09 02:37:23;;;;;;;0.30;0.30;;;17.10;99.90;;;;;;5013498;28;20027;-73
2023/10/09 02:39:22;;;;;;;1.10;1.02;;;17.20;99.90;;;;;;5002447;28;20065;-73
2023/10/09 02:41:50;;;;;;;0.00;0.00;;;17.10;99.90;;;;;;5012951;28;20018;-73
2023/10/09 02:44:17;;;;;;;0.00;0.00;;;17.40;99.90;;;;;;4996272;28;20061;-73
2023/10/09 02:46:44;;;;;;;4.50;1.48;;;17.50;99.90;;;;;;5013008;28;20120;-73
2023/10/09 02:49:15;;;;;;;3.83;1.13;;;17.30;99.90;;;;;;5013215;28;20041;-73
2023/10/09 02:51:47;;;;;;;0.00;0.00;;;17.00;99.90;;;;;;5014064;28;20474;-74
2023/10/09 02:54:47;;;;;;;0.30;0.30;;;17.10;99.90;;;;;;5013985;28;20095;-74
2023/10/09 02:57:07;;;;;;;0.95;0.93;;;17.20;99.90;;;;;;5011007;28;20084;-73
2023/10/09 02:59:44;;;;;;;0.90;0.70;;;17.30;99.90;;;;;;5014177;28;20030;-74
2023/10/09 03:02:10;;;;;;;0.10;0.10;;;17.20;99.90;;;;;;5012586;28;20509;-73
2023/10/09 03:04:38;;;;;;;0.30;0.30;;;17.20;99.90;;;;;;5014193;28;20478;-74
2023/10/09 03:07:05;;;;;;;0.10;0.10;;;17.20;99.90;;;;;;5013798;28;20050;-73
2023/10/09 03:09:32;;;;;;;3.88;0.98;;;17.30;99.90;;;;;;5000586;28;20034;-73
2023/10/09 03:12:03;;;;;;;2.20;1.35;;;17.40;99.90;;;;;;5013943;28;20034;-74
2023/10/09 03:14:35;;;;;;;2.42;1.45;;;17.10;99.90;;;;;;5013880;28;20041;-74
2023/10/09 03:17:01;;;;;;;0.13;0.13;;;16.80;99.90;;;;;;5013823;28;20171;-74
2023/10/09 03:19:37;;;;;;;0.38;0.38;;;16.90;99.90;;;;;;5029051;28;20050;-74
2023/10/09 03:22:10;;;;;;;7.60;3.58;;;16.90;99.90;;;;;;5013625;28;20493;-75
2023/10/09 03:24:38;;;;;;;5.15;1.02;;;16.80;99.90;;;;;;5012634;28;20116;-74
2023/10/09 03:27:04;;;;;;;0.90;0.88;;;16.70;99.90;;;;;;5028913;28;20026;-73
2023/10/09 03:29:30;;;;;;;2.80;1.58;;;16.50;99.90;;;;;;5012302;28;20025;-74
2023/10/09 03:31:56;;;;;;;0.65;0.65;;;16.60;99.90;;;;;;5013468;28;20045;-73
2023/10/09 03:34:23;;;;;;;0.00;0.00;;;16.90;99.90;;;;;;5013447;28;20049;-74
2023/10/09 03:36:59;;;;;;;2.00;0.88;;;17.00;99.90;;;;;;5028464;28;20025;-75
2023/10/09 03:39:38;;;;;;;0.43;0.43;;;17.20;99.90;;;;;;5028632;28;20045;-75
2023/10/09 03:42:04;;;;;;;3.72;2.78;;;17.10;99.90;;;;;;5011817;28;20550;-75
2023/10/09 03:44:35;;;;;;;1.35;0.63;;;16.70;99.90;;;;;;5013342;28;20152;-75
2023/10/09 03:47:02;;;;;;;1.00;1.00;;;17.00;99.90;;;;;;5013401;28;20084;-75
2023/10/09 03:49:29;;;;;;;0.00;0.00;;;16.80;99.90;;;;;;5028612;28;20430;-74
2023/10/09 03:51:55;;;;;;;1.35;0.68;;;17.10;99.90;;;;;;5011736;28;20026;-75
2023/10/09 03:54:22;;;;;;;0.00;0.00;;;17.00;99.90;;;;;;5013266;28;20554;-72
2023/10/09 03:56:49;;;;;;;1.08;1.08;;;17.10;99.90;;;;;;5013074;28;20026;-75
2023/10/09 03:59:19;;;;;;;0.10;0.10;;;16.90;99.90;;;;;;5013298;28;20080;-75
2023/10/09 04:01:48;;;;;;;0.55;0.55;;;17.20;99.90;;;;;;5013093;28;20026;-75
2023/10/09 04:04:14;;;;;;;0.22;0.22;;;17.10;99.90;;;;;;5012718;28;20371;-74
2023/10/09 04:06:40;;;;;;;0.60;0.57;;;17.00;99.90;;;;;;5012821;28;20113;-75
2023/10/09 04:14:34;;;;;;;0.10;0.10;;;16.70;99.90;;;;;;5012982;28;20044;-73
2023/10/09 04:17:05;;;;;;;3.67;1.55;;;16.70;99.90;;;;;;5013034;28;20034;-74
2023/10/09 04:19:38;;;;;;;0.10;0.10;;;16.70;99.90;;;;;;5027708;28;20489;-74
2023/10/09 04:22:09;;;;;;;0.00;0.00;;;17.00;99.90;;;;;;5013076;28;20033;-74
2023/10/09 04:24:41;;;;;;;1.30;0.75;;;17.10;99.90;;;;;;5012810;28;20110;-75
2023/10/09 04:27:08;;;;;;;0.75;0.70;;;17.10;99.90;;;;;;5012573;28;20021;-74
2023/10/09 04:29:46;;;;;;;4.75;2.38;;;17.30;99.90;;;;;;5012570;28;20100;-75
2023/10/09 04:32:15;;;;;;;0.15;0.15;;;17.30;99.90;;;;;;5028133;28;20092;-74
2023/10/09 04:34:48;;;;;;;0.80;0.75;;;17.50;99.90;;;;;;5027469;28;20034;-74
2023/10/09 04:39:47;;;;;;;0.20;0.20;;;17.20;99.90;;;;;;5027528;28;20471;-74
2023/10/09 04:47:38;;;;;;;0.27;0.20;;;16.90;99.90;;;;;;5012845;28;20548;-74
2023/10/09 04:50:36;;;;;;;1.13;1.02;;;16.80;99.90;;;;;;5012109;28;20374;-75
2023/10/09 04:55:44;;;;;;;0.40;0.40;;;16.80;99.90;;;;;;5012707;28;20044;-75
2023/10/09 04:58:23;;;;;;;0.38;0.38;;;16.70;99.90;;;;;;5027753;28;20034;-74
2023/10/09 05:01:04;;;;;;;0.10;0.10;;;16.60;99.90;;;;;;5011657;28;20030;-75
2023/10/09 05:09:09;;;;;;;5.57;3.80;;;17.00;99.90;;;;;;5000397;28;20743;-77
2023/10/09 05:11:53;;;;;;;0.00;0.00;;;16.80;99.90;;;;;;5012511;28;20026;-77
2023/10/09 05:14:26;;;;;;;7.03;2.33;;;16.60;99.90;;;;;;5011947;28;20121;-75
2023/10/09 05:16:54;;;;;;;2.15;1.27;;;16.60;99.90;;;;;;5011266;28;20110;-75
2023/10/09 05:19:33;;;;;;;3.20;2.90;;;16.70;99.90;;;;;;5011654;28;20044;-76
2023/10/09 05:22:04;;;;;;;2.97;2.15;;;16.60;99.90;;;;;;5012461;28;20033;-75
2023/10/09 05:24:42;;;;;;;1.65;1.08;;;16.60;99.90;;;;;;5011553;28;20034;-76
2023/10/09 05:27:45;;;;;;;13.38;5.15;;;16.70;99.90;;;;;;5015915;28;20040;-75
2023/10/09 05:30:24;;;;;;;0.63;0.57;;;16.50;99.90;;;;;;5015622;28;20033;-74
2023/10/09 05:32:55;;;;;;;10.25;1.98;;;16.50;99.90;;;;;;5013914;28;20117;-75
2023/10/09 05:35:29;;;;;;;2.35;1.30;;;16.50;99.90;;;;;;5015678;28;20033;-75
2023/10/09 05:38:03;;;;;;;3.92;1.75;;;16.50;99.90;;;;;;5015437;28;20399;-74
2023/10/09 05:40:31;;;;;;;2.97;2.20;;;16.50;99.90;;;;;;5014418;28;20045;-76
2023/10/09 05:43:02;;;;;;;3.80;3.15;;;16.70;99.90;;;;;;5015377;28;20553;-74
2023/10/09 05:51:10;;;;;;;3.95;1.48;;;16.60;99.90;;;;;;5014257;28;20033;-75
2023/10/09 06:04:18;;;;;;;1.08;0.75;;;16.70;99.90;;;;;;5013533;28;20000;-75
2023/10/09 06:06:45;;;;;;;5.93;1.45;;;16.70;99.90;;;;;;5014361;28;20109;-75
2023/10/09 06:14:24;;;;;;;0.80;0.80;;;16.70;99.90;;;;;;5014664;28;20044;-75
2023/10/09 06:17:17;;;;;;;10.88;4.53;;;16.70;99.90;;;;;;5013188;28;20022;-76
2023/10/09 06:19:43;;;;;;;0.63;0.63;;;16.70;99.90;;;;;;5013695;28;20123;-75
2023/10/09 06:24:54;;;;;;;6.80;3.05;;;17.00;99.90;;;;;;5012298;28;20095;-77
2023/10/09 06:27:56;;;;;;;2.30;1.20;;;17.00;99.90;;;;;;5010770;28;20026;-76
2023/10/09 06:32:50;;;;;;;1.85;0.70;;;16.90;99.90;;;;;;5011821;28;20033;-74
2023/10/09 06:35:30;;;;;;;1.65;1.10;;;17.00;99.90;;;;;;5013496;28;20030;-76
2023/10/09 06:43:36;;;;;;;0.75;0.75;;;16.80;99.90;;;;;;5012335;28;20406;-76
2023/10/09 06:48:55;;;;;;;3.00;2.72;;;16.70;99.90;;;;;;5013793;28;20030;-76
2023/10/09 06:59:03;;;;;;;2.00;1.65;;;16.80;99.90;;;;;;5008804;28;20501;-76
2023/10/09 07:01:42;;;;;;;0.08;0.08;;;16.80;99.90;;;;;;5013244;28;20034;-75
2023/10/09 07:06:59;;;;;;;0.10;0.10;;;16.90;99.90;;;;;;5006445;28;20025;-74
2023/10/09 07:09:41;;;;;;;3.15;2.05;;;17.10;99.90;;;;;;5013084;28;20025;-76
2023/10/09 07:12:43;;;;;;;1.83;1.70;;;17.30;99.90;;;;;;5011945;28;20064;-77
2023/10/09 07:16:07;;;;;;;4.68;3.63;;;17.30;99.90;;;;;;5000606;28;20119;-76
2023/10/09 07:17:47;;;;;;;15.38;5.63;;;17.40;99.90;;;;;;5012971;28;20526;-77
2023/10/09 07:20:13;;;;;;;5.85;0.85;;;17.30;99.90;;;;;;5013209;28;20128;-78
2023/10/09 07:22:52;;;;;;;4.40;3.95;;;17.40;99.90;;;;;;5012992;28;20029;-76
2023/10/09 07:28:18;;;;;;;1.25;1.15;;;17.30;99.90;;;;;;5012527;28;20033;-73
2023/10/09 07:30:46;;;;;;;0.20;0.20;;;17.40;99.90;;;;;;5005991;28;20494;-76
2023/10/09 07:38:21;;;;;;;0.05;0.05;;;17.40;99.90;;;;;;5012780;28;20145;-75
2023/10/09 07:43:39;;;;;;;1.83;1.65;;;17.80;99.90;;;;;;5003373;28;20038;-77
2023/10/09 07:48:53;;;;;;;10.27;2.97;;;17.40;99.90;;;;;;5027172;28;20038;-75
2023/10/09 07:51:31;;;;;;;29.08;4.65;;;17.50;99.90;;;;;;5010797;28;20156;-76
2023/10/09 07:54:07;;;;;;;0.45;0.45;;;17.50;99.90;;;;;;5012593;28;20133;-76
2023/10/09 07:57:08;;;;;;;0.30;0.30;;;17.40;99.90;;;;;;5012159;28;20029;-76
2023/10/09 07:59:26;;;;;;;2.40;2.22;;;17.80;99.90;;;;;;5011978;28;20030;-75
2023/10/09 08:01:52;;;;;;;2.53;2.10;;;17.90;99.90;;;;;;5012433;28;20552;-77
2023/10/09 08:04:37;;;;;;;1.27;1.25;;;18.20;99.90;;;;;;5012253;28;20030;-77
2023/10/09 08:07:19;;;;;;;11.05;6.50;;;18.20;99.90;;;;;;5011270;28;20029;-75
2023/10/09 08:11:35;;;;;;;0.20;0.20;;;18.10;99.90;;;;;;5005703;28;20096;-75
2023/10/09 08:12:57;;;;;;;0.80;0.80;;;17.80;99.90;;;;;;5009451;28;20541;-77
2023/10/09 08:15:34;;;;;;;2.60;1.10;;;17.80;99.90;;;;;;5012152;28;20038;-77
2023/10/09 08:18:09;;;;;;;1.17;1.08;;;17.90;99.90;;;;;;5004146;28;20486;-75
2023/10/09 08:23:48;;;;;;;1.80;1.15;;;18.60;99.90;;;;;;4934402;28;20047;-76
2023/10/09 08:26:19;;;;;;;0.55;0.55;;;19.00;99.90;;;;;;5008816;28;20030;-77
2023/10/09 08:28:57;;;;;;;0.25;0.25;;;19.10;99.90;;;;;;5020229;28;20115;-77
2023/10/09 08:31:34;;;;;;;0.17;0.17;;;18.50;99.90;;;;;;5002775;28;20033;-74
2023/10/09 08:34:01;;;;;;;0.10;0.10;;;18.80;99.90;;;;;;5011968;28;20441;-77
2023/10/09 08:36:28;;;;;;;3.40;3.15;;;19.00;99.90;;;;;;5010557;28;20022;-78
2023/10/09 08:38:58;;;;;;;7.47;3.67;;;18.90;99.90;;;;;;5011862;28;20022;-77
2023/10/09 08:41:29;;;;;;;1.70;1.60;;;18.60;99.90;;;;;;5011620;28;20164;-76
2023/10/09 08:43:57;;;;;;;6.13;2.45;;;18.40;99.90;;;;;;5010807;28;20182;-75
2023/10/09 08:46:27;;;;;;;0.03;0.03;;;18.50;99.90;;;;;;5011797;28;20042;-75
2023/10/09 08:48:55;;;;;;;5.22;1.75;;;18.50;99.90;;;;;;5000306;28;20057;-77
2023/10/09 08:51:23;;;;;;;0.05;0.05;;;18.60;99.90;;;;;;5011957;28;20022;-77
2023/10/09 08:53:49;;;;;;;2.92;1.90;;;19.20;99.90;;;;;;5011538;28;20560;-74
2023/10/09 08:56:21;;;;;;;5.93;1.42;;;19.30;99.90;;;;;;5011167;28;20030;-75
2023/10/09 08:58:52;;;;;;;11.95;1.92;;;18.70;99.90;;;;;;5012388;28;20363;-71
2023/10/09 09:01:20;;;;;;;4.72;3.13;;;18.60;99.90;;;;;;5030875;28;20489;-74
2023/10/09 09:03:46;;;;;;;11.38;5.55;;;19.20;99.90;;;;;;5015607;28;20030;-76
2023/10/09 09:06:14;;;;;;;2.67;1.35;;;19.20;99.90;;;;;;5014424;28;20386;-75
2023/10/09 09:08:40;;;;;;;0.95;0.95;;;18.80;99.90;;;;;;5015712;28;20026;-77
2023/10/09 09:11:24;;;;;;;0.00;0.00;;;19.10;99.90;;;;;;5013864;28;20026;-75
2023/10/09 09:14:06;;;;;;;14.10;4.03;;;19.10;99.90;;;;;;5015515;28;20065;-74
2023/10/09 09:16:34;;;;;;;;;;;19.40;99.90;;;;;;5015144;28;20072;-75
2023/10/09 09:21:44;;;;;;;5.03;3.00;;;19.10;99.90;;;;;;5015145;28;20053;-74
2023/10/09 09:24:26;;;;;;;3.50;2.40;;;19.30;99.90;;;;;;5010094;28;20032;-74
2023/10/09 09:26:59;;;;;;;8.73;4.68;;;19.70;99.90;;;;;;5014953;28;20127;-76
2023/10/09 09:29:52;;;;;;;6.10;4.15;;;19.60;99.90;;;;;;5014703;28;20026;-77
2023/10/09 09:32:35;;;;;;;2.42;1.98;;;19.70;99.90;;;;;;5000606;28;20241;-75
2023/10/09 09:35:04;;;;;;;25.02;11.38;;;20.00;99.90;;;;;;5012966;28;20052;-74
2023/10/09 09:37:51;;;;;;;4.65;4.15;;;19.70;99.90;;;;;;5014579;28;20045;-77
2023/10/09 09:40:30;;;;;;;0.43;0.43;;;19.20;99.90;;;;;;5014444;28;20029;-76
2023/10/09 09:43:05;;;;;;;5.85;1.63;;;19.20;99.90;;;;;;5014597;28;20134;-76
2023/10/09 09:45:47;;;;;;;2.80;1.48;;;19.50;99.90;;;;;;5014232;28;20489;-73
2023/10/09 09:48:15;;;;;;;13.98;7.53;;;19.70;99.90;;;;;;5013362;28;20048;-74
2023/10/09 09:50:46;;;;;;;4.85;2.47;;;19.70;99.90;;;;;;5013074;28;20026;-74
2023/10/09 09:53:19;;;;;;;1.25;1.15;;;19.80;99.90;;;;;;5014275;28;20045;-73
2023/10/09 09:55:57;;;;;;;15.93;5.20;;;19.90;99.90;;;;;;5007738;28;20022;-75
2023/10/09 09:58:32;;;;;;;16.15;7.40;;;19.70;99.90;;;;;;4998524;28;20038;-73
2023/10/09 10:01:16;;;;;;;3.15;2.47;;;19.50;99.90;;;;;;4997868;28;20030;-75
2023/10/09 10:03:47;;;;;;;0.13;0.13;;;19.70;99.90;;;;;;5007784;28;20076;-74
2023/10/09 10:06:13;;;;;;;;;;;20.20;99.90;;;;;;5012949;28;20390;-76
2023/10/09 10:08:41;;;;;;;5.97;1.92;;;20.20;99.90;;;;;;5012559;28;19912;-74
2023/10/09 10:11:14;;;;;;;17.27;5.45;;;20.30;99.90;;;;;;5013427;28;20073;-73
2023/10/09 10:13:46;;;;;;;11.48;0.80;;;20.30;99.90;;;;;;5014339;28;20041;-76
2023/10/09 10:16:13;;;;;;;0.57;0.17;;;20.80;99.90;;;;;;5014054;28;20022;-77
2023/10/09 10:19:14;;;;;;;2.78;1.60;;;21.10;99.90;;;;;;5025497;28;20026;-75
2023/10/09 10:21:48;;;;;;;7.18;1.98;;;20.70;99.90;;;;;;5021669;28;20056;-76
2023/10/09 10:24:30;;;;;;;0.00;0.00;;;20.30;99.90;;;;;;5014585;28;20417;-74
2023/10/09 10:28:09;;;;;;;7.22;2.53;;;20.40;99.90;;;;;;5004333;28;20025;-77
2023/10/09 10:30:23;;;;;;;1.17;1.03;;;20.70;99.90;;;;;;5010706;28;20092;-76
2023/10/09 10:32:52;;;;;;;;;;;21.20;99.90;;;;;;5014601;28;20637;-78
2023/10/09 10:35:39;;;;;;;2.10;1.77;;;20.70;99.90;;;;;;5013167;28;19909;-78
2023/10/09 10:38:25;;;;;;;1.25;0.98;;;20.60;99.90;;;;;;5012694;28;20109;-78
2023/10/09 10:40:57;;;;;;;6.07;2.63;;;20.60;99.90;;;;;;5013058;28;20046;-78
2023/10/09 10:46:24;;;;;;;1.63;1.52;;;20.80;99.90;;;;;;5014422;28;20042;-76
2023/10/09 10:48:59;;;;;;;0.00;0.00;;;21.00;99.90;;;;;;5013876;28;20022;-78
2023/10/09 10:51:40;;;;;;;1.15;1.02;;;20.90;99.90;;;;;;5013895;28;20029;-78
2023/10/09 10:55:17;;;;;;;4.72;3.33;;;21.10;99.90;;;;;;5014077;28;20433;-78
2023/10/09 10:57:19;;;;;;;1.70;1.63;;;21.40;99.90;;;;;;5008986;28;20387;-78
2023/10/09 10:59:45;;;;;;;0.47;0.47;;;21.70;99.90;;;;;;5012993;28;20041;-76
2023/10/09 11:04:40;;;;;;;1.60;1.50;;;21.50;99.90;;;;;;5001949;28;20570;-78
2023/10/09 11:07:12;;;;;;;0.00;0.00;;;21.60;99.90;;;;;;5013517;28;20064;-78
2023/10/09 11:12:38;;;;;;;9.20;4.05;;;21.80;99.90;;;;;;5013514;28;20233;-77
2023/10/09 11:18:07;;;;;;;7.65;2.10;;;21.60;99.90;;;;;;5013539;28;20407;-78
2023/10/09 11:20:36;;;;;;;3.85;1.85;;;21.50;99.90;;;;;;5013371;28;20030;-78
2023/10/09 11:25:52;;;;;;;1.38;0.75;;;21.30;99.90;;;;;;5013329;28;20022;-77
2023/10/09 11:31:11;;;;;;;6.05;2.40;;;21.50;99.90;;;;;;5013372;28;20038;-76
2023/10/09 11:33:53;;;;;;;0.80;0.80;;;21.50;99.90;;;;;;5013164;28;20053;-77
2023/10/09 11:36:48;;;;;;;0.38;0.38;;;21.70;99.90;;;;;;5012653;28;20095;-76
2023/10/09 11:39:41;;;;;;;6.60;2.92;;;21.50;99.90;;;;;;5012742;28;20506;-75
2023/10/09 11:42:09;;;;;;;0.10;0.10;;;21.40;99.90;;;;;;5001070;28;20102;-77
2023/10/09 11:44:45;;;;;;;0.60;0.50;;;21.30;99.90;;;;;;5013268;28;20038;-76
2023/10/09 11:47:23;;;;;;;3.55;2.00;;;21.30;99.90;;;;;;5001639;28;20091;-76
2023/10/09 11:54:58;;;;;;;2.40;0.90;;;21.20;99.90;;;;;;5013014;28;20672;-76
2023/10/09 11:57:30;;;;;;;1.65;1.45;;;21.60;99.90;;;;;;5013116;28;20046;-76
2023/10/09 12:00:46;;;;;;;3.00;1.77;;;21.40;99.90;;;;;;5011792;28;20449;-77
2023/10/09 12:02:53;;;;;;;0.47;0.30;;;21.50;99.90;;;;;;4992841;28;20145;-76
2023/10/09 12:05:19;;;;;;;5.15;3.20;;;21.80;99.90;;;;;;5012970;28;20057;-75
2023/10/09 12:07:46;;;;;;;0.80;0.80;;;21.80;99.90;;;;;;5012973;28;20034;-76
2023/10/09 12:10:18;;;;;;;0.15;0.13;;;21.80;99.90;;;;;;5011720;28;20037;-77
2023/10/09 12:12:46;;;;;;;1.13;1.05;;;22.00;99.90;;;;;;5012937;28;20076;-77
2023/10/09 12:15:17;;;;;;;0.90;0.85;;;21.90;99.90;;;;;;5013023;28;20426;-78
2023/10/09 12:17:47;;;;;;;0.00;0.00;;;22.20;99.90;;;;;;5013106;28;20030;-76
2023/10/09 12:20:31;;;;;;;5.70;2.35;;;22.30;99.90;;;;;;5012825;28;20268;-78
2023/10/09 12:23:04;;;;;;;1.35;0.90;;;21.90;99.90;;;;;;5012684;28;20033;-78
2023/10/09 12:25:35;;;;;;;5.90;1.13;;;22.10;99.90;;;;;;5013010;28;20068;-78
2023/10/09 12:28:02;;;;;;;2.90;2.15;;;22.00;99.90;;;;;;5012769;28;20032;-76
2023/10/09 12:30:39;;;;;;;2.17;1.30;;;21.80;99.90;;;;;;5011522;28;20033;-77
2023/10/09 12:33:07;;;;;;;4.32;2.30;;;21.70;99.90;;;;;;5012283;28;20091;-77
2023/10/09 12:35:40;;;;;;;0.20;0.20;;;21.40;99.90;;;;;;5016974;28;20513;-77
2023/10/09 12:38:10;;;;;;;8.52;2.00;;;21.40;99.90;;;;;;5016802;28;20058;-77
2023/10/09 12:40:41;;;;;;;8.63;1.60;;;21.80;99.90;;;;;;5032030;28;20038;-78
2023/10/09 12:43:15;;;;;;;1.70;1.60;;;21.70;99.90;;;;;;5032008;28;20041;-78
2023/10/09 12:45:42;;;;;;;0.00;0.00;;;21.80;99.90;;;;;;5016602;28;20045;-78
2023/10/09 12:48:12;;;;;;;3.08;0.52;;;21.90;99.90;;;;;;5016417;28;20026;-77
2023/10/09 12:50:47;;;;;;;0.95;0.95;;;21.90;99.90;;;;;;5016479;28;20029;-77
2023/10/09 12:53:17;;;;;;;0.22;0.22;;;21.90;99.90;;;;;;5016544;28;20493;-76
2023/10/09 12:55:43;;;;;;;1.13;0.93;;;22.10;99.90;;;;;;5031559;28;20038;-79
2023/10/09 12:58:14;;;;;;;5.85;2.22;;;22.40;99.90;;;;;;5016429;28;20028;-78
2023/10/09 13:00:49;;;;;;;6.28;3.65;;;21.80;99.90;;;;;;5016361;28;20451;-77
2023/10/09 13:03:17;;;;;;;1.98;1.85;;;22.30;99.90;;;;;;5016176;28;20040;-78
2023/10/09 13:05:56;;;;;;;0.10;0.10;;;22.60;99.90;;;;;;5015981;28;20033;-77
2023/10/09 13:08:35;;;;;;;0.00;0.00;;;23.20;99.90;;;;;;5016383;28;20061;-77
2023/10/09 13:11:11;;;;;;;4.82;1.17;;;23.70;99.90;;;;;;5015966;28;20030;-76
2023/10/09 13:13:40;;;;;;;1.67;1.00;;;23.30;99.90;;;;;;5016263;28;20051;-78
2023/10/09 13:16:07;;;;;;;0.70;0.43;;;23.50;99.90;;;;;;5015721;28;20438;-77
2023/10/09 13:18:33;;;;;;;1.77;0.85;;;23.00;99.90;;;;;;5015761;28;20044;-78
2023/10/09 13:21:03;;;;;;;0.17;0.10;;;22.90;99.90;;;;;;5015949;28;20080;-78
2023/10/09 13:23:38;;;;;;;0.52;0.38;;;23.10;99.90;;;;;;5016092;28;20037;-78
2023/10/09 13:26:17;;;;;;;10.68;3.20;;;22.90;99.90;;;;;;5015752;28;20057;-76
2023/10/09 13:28:47;;;;;;;1.38;1.27;;;21.90;99.90;;;;;;5031166;28;20397;-78
2023/10/09 13:31:15;;;;;;;0.10;0.10;;;21.40;99.90;;;;;;5015324;28;20042;-78
2023/10/09 13:33:44;;;;;;;3.50;0.90;;;21.90;99.90;;;;;;5014499;28;20104;-76
2023/10/09 13:36:19;;;;;;;2.28;2.00;;;21.40;99.90;;;;;;5015597;28;20041;-77
2023/10/09 13:38:48;;;;;;;0.13;0.13;;;21.80;99.90;;;;;;5015655;28;20111;-76
2023/10/09 13:41:14;;;;;;;0.57;0.55;;;21.80;99.90;;;;;;5015481;28;20026;-76
2023/10/09 13:43:42;;;;;;;2.08;1.33;;;21.70;99.90;;;;;;5015788;28;20109;-76
2023/10/09 13:46:11;;;;;;;4.13;3.50;;;21.70;99.90;;;;;;5014129;28;20057;-76
2023/10/09 13:48:41;;;;;;;1.65;1.55;;;21.80;99.90;;;;;;5015602;28;20077;-76
2023/10/09 13:51:23;;;;;;;2.20;0.70;;;21.60;99.90;;;;;;5009443;28;20022;-77
2023/10/09 13:53:49;;;;;;;0.15;0.15;;;21.70;99.90;;;;;;5002311;28;20042;-76
2023/10/09 13:56:20;;;;;;;0.20;0.20;;;21.60;99.90;;;;;;5013737;28;20024;-76
2023/10/09 13:58:46;;;;;;;1.17;0.93;;;21.60;99.90;;;;;;5024574;28;20061;-76
2023/10/09 14:01:20;;;;;;;0.25;0.25;;;22.10;99.90;;;;;;5014843;28;20418;-76
2023/10/09 14:03:49;;;;;;;0.32;0.32;;;22.20;99.90;;;;;;5015253;28;20042;-77
2023/10/09 14:06:19;;;;;;;0.43;0.30;;;22.10;99.90;;;;;;5015264;28;20459;-76
2023/10/09 14:08:45;;;;;;;1.98;1.10;;;21.90;99.90;;;;;;5015047;28;20033;-76
2023/10/09 14:11:13;;;;;;;4.65;2.10;;;22.30;99.90;;;;;;5014767;28;20053;-76
2023/10/09 14:13:42;;;;;;;0.00;0.00;;;22.60;99.90;;;;;;5015163;28;20041;-76
2023/10/09 14:16:23;;;;;;;0.28;0.28;;;22.60;99.90;;;;;;5013436;28;20030;-76
2023/10/09 14:18:57;;;;;;;1.50;0.38;;;23.10;99.90;;;;;;5014955;28;20479;-77
2023/10/09 14:21:25;;;;;;;0.73;0.57;;;23.00;99.90;;;;;;5015097;28;20026;-73
2023/10/09 14:23:56;;;;;;;0.50;0.50;;;22.90;99.90;;;;;;5014547;28;20046;-72
2023/10/09 14:26:27;;;;;;;0.47;0.47;;;22.60;99.90;;;;;;5014716;28;20026;-72
2023/10/09 14:28:56;;;;;;;0.60;0.57;;;22.60;99.90;;;;;;5013247;28;20038;-71
2023/10/09 14:31:26;;;;;;;0.93;0.57;;;22.10;99.90;;;;;;5014145;28;20026;-70
2023/10/09 14:33:58;;;;;;;3.38;1.58;;;22.20;99.90;;;;;;5014000;28;20454;-71
2023/10/09 14:36:33;;;;;;;0.03;0.03;;;22.30;99.90;;;;;;5014012;28;20374;-72
2023/10/09 14:39:00;;;;;;;0.45;0.45;;;22.10;99.90;;;;;;5014293;28;20099;-72
2023/10/09 14:41:27;;;;;;;0.77;0.57;;;21.90;99.90;;;;;;5014221;28;20029;-80
2023/10/09 14:43:54;;;;;;;0.00;0.00;;;21.70;99.90;;;;;;5014146;28;20029;-83
2023/10/09 14:46:27;;;;;;;0.47;0.47;;;22.10;99.90;;;;;;5014212;28;20124;-72
2023/10/09 14:48:54;;;;;;;0.30;0.30;;;22.40;99.90;;;;;;5014276;28;20025;-73
2023/10/09 14:51:26;;;;;;;0.22;0.22;;;23.60;99.90;;;;;;5014128;28;20076;-71
2023/10/09 14:54:01;;;;;;;0.70;0.70;;;24.50;99.90;;;;;;5014182;28;20088;-82
2023/10/09 14:56:31;;;;;;;0.00;0.00;;;24.80;99.90;;;;;;5011269;28;20022;-75
2023/10/09 14:58:58;;;;;;;0.00;0.00;;;25.20;99.90;;;;;;5013709;28;20033;-74
2023/10/09 15:01:31;;;;;;;1.08;0.52;;;25.40;99.90;;;;;;5013969;28;20382;-77
2023/10/09 15:04:00;;;;;;;0.00;0.00;;;26.00;99.90;;;;;;5013829;28;20029;-78
2023/10/09 15:06:30;;;;;;;0.82;0.80;;;27.40;99.80;;;;;;5013695;28;20541;-77
2023/10/09 15:08:58;;;;;;;0.95;0.75;;;26.20;99.90;;;;;;5013665;28;20548;-73
2023/10/09 15:11:25;;;;;;;2.50;1.67;;;25.90;99.90;;;;;;5029336;28;20018;-80
2023/10/09 15:13:57;;;;;;;0.00;0.00;;;27.30;99.80;;;;;;5013791;28;20053;-75
2023/10/09 15:16:26;;;;;;;0.57;0.57;;;27.40;99.10;;;;;;5000809;28;20109;-77
2023/10/09 15:18:57;;;;;;;0.63;0.47;;;26.60;99.80;;;;;;5013801;28;20041;-70
2023/10/09 15:21:32;;;;;;;2.67;0.85;;;26.80;98.80;;;;;;5013839;28;20105;-71
2023/10/09 15:23:59;;;;;;;0.00;0.00;;;26.40;99.90;;;;;;5013503;28;20038;-77
2023/10/09 15:26:25;;;;;;;0.00;0.00;;;25.00;99.90;;;;;;5013248;28;20025;-70